sensor_id;sensor_type;location;lat;lon;timestamp;P1;durP1;ratioP1;P2;durP2;ratioP2
22107;SDS011;11220;48.812;9.128;2023-08-21T00:01:14;2.70;;;2.08;;
22107;SDS011;11220;48.812;9.128;2023-08-21T00:03:40;2.35;;;2.05;;
22107;SDS011;11220;48.812;9.128;2023-08-21T00:06:05;2.35;;;1.83;;
22107;SDS011;11220;48.812;9.128;2023-08-21T00:08:31;2.55;;;2.10;;
22107;SDS011;11220;48.812;9.128;2023-08-21T00:10:56;2.53;;;2.05;;
22107;SDS011;11220;48.812;9.128;2023-08-21T00:13:22;2.13;;;1.75;;
22107;SDS011;11220;48.812;9.128;2023-08-21T00:15:48;1.92;;;1.73;;
22107;SDS011;11220;48.812;9.128;2023-08-21T00:18:13;2.42;;;1.85;;
22107;SDS011;11220;48.812;9.128;2023-08-21T00:20:39;2.30;;;1.75;;
22107;SDS011;11220;48.812;9.128;2023-08-21T00:23:06;2.30;;;2.00;;
22107;SDS011;11220;48.812;9.128;2023-08-21T00:25:33;1.92;;;1.75;;
22107;SDS011;11220;48.812;9.128;2023-08-21T00:27:58;1.98;;;1.77;;
22107;SDS011;11220;48.812;9.128;2023-08-21T00:30:24;2.00;;;1.80;;
22107;SDS011;11220;48.812;9.128;2023-08-21T00:32:49;2.13;;;1.92;;
22107;SDS011;11220;48.812;9.128;2023-08-21T00:35:15;1.85;;;1.75;;
22107;SDS011;11220;48.812;9.128;2023-08-21T00:37:40;2.50;;;1.95;;
22107;SDS011;11220;48.812;9.128;2023-08-21T00:40:06;1.75;;;1.40;;
22107;SDS011;11220;48.812;9.128;2023-08-21T00:42:32;2.58;;;1.92;;
22107;SDS011;11220;48.812;9.128;2023-08-21T00:44:58;2.40;;;1.77;;
22107;SDS011;11220;48.812;9.128;2023-08-21T00:47:23;2.30;;;2.10;;
22107;SDS011;11220;48.812;9.128;2023-08-21T00:49:49;2.33;;;2.03;;
22107;SDS011;11220;48.812;9.128;2023-08-21T00:52:15;2.35;;;1.90;;
22107;SDS011;11220;48.812;9.128;2023-08-21T00:54:42;2.00;;;1.80;;
22107;SDS011;11220;48.812;9.128;2023-08-21T00:57:08;1.98;;;1.73;;
22107;SDS011;11220;48.812;9.128;2023-08-21T00:59:35;1.73;;;1.60;;
22107;SDS011;11220;48.812;9.128;2023-08-21T01:02:01;2.88;;;2.10;;
22107;SDS011;11220;48.812;9.128;2023-08-21T01:04:26;2.25;;;1.95;;
22107;SDS011;11220;48.812;9.128;2023-08-21T01:06:52;2.17;;;1.85;;
22107;SDS011;11220;48.812;9.128;2023-08-21T01:12:42;2.20;;;1.88;;
22107;SDS011;11220;48.812;9.128;2023-08-21T01:15:13;2.42;;;2.22;;
22107;SDS011;11220;48.812;9.128;2023-08-21T01:17:40;2.22;;;2.00;;
22107;SDS011;11220;48.812;9.128;2023-08-21T01:20:06;2.35;;;2.15;;
22107;SDS011;11220;48.812;9.128;2023-08-21T01:22:36;2.55;;;2.35;;
22107;SDS011;11220;48.812;9.128;2023-08-21T01:25:06;2.22;;;2.03;;
22107;SDS011;11220;48.812;9.128;2023-08-21T01:27:34;3.22;;;2.13;;
22107;SDS011;11220;48.812;9.128;2023-08-21T01:30:00;2.38;;;2.17;;
22107;SDS011;11220;48.812;9.128;2023-08-21T01:35:30;2.75;;;2.25;;
22107;SDS011;11220;48.812;9.128;2023-08-21T01:37:58;2.58;;;2.15;;
22107;SDS011;11220;48.812;9.128;2023-08-21T01:40:24;2.47;;;2.28;;
22107;SDS011;11220;48.812;9.128;2023-08-21T01:42:49;2.25;;;2.03;;
22107;SDS011;11220;48.812;9.128;2023-08-21T01:45:17;3.83;;;2.03;;
22107;SDS011;11220;48.812;9.128;2023-08-21T01:47:42;2.90;;;2.20;;
22107;SDS011;11220;48.812;9.128;2023-08-21T01:50:08;3.15;;;2.40;;
22107;SDS011;11220;48.812;9.128;2023-08-21T01:52:34;3.30;;;2.47;;
22107;SDS011;11220;48.812;9.128;2023-08-21T01:54:59;2.65;;;2.10;;
22107;SDS011;11220;48.812;9.128;2023-08-21T01:57:25;2.40;;;2.20;;
22107;SDS011;11220;48.812;9.128;2023-08-21T01:59:50;2.72;;;2.17;;
22107;SDS011;11220;48.812;9.128;2023-08-21T02:02:16;2.60;;;2.10;;
22107;SDS011;11220;48.812;9.128;2023-08-21T02:04:42;2.70;;;2.40;;
22107;SDS011;11220;48.812;9.128;2023-08-21T02:07:07;3.25;;;2.60;;
22107;SDS011;11220;48.812;9.128;2023-08-21T02:09:33;4.30;;;2.58;;
22107;SDS011;11220;48.812;9.128;2023-08-21T02:11:58;3.10;;;2.40;;
22107;SDS011;11220;48.812;9.128;2023-08-21T02:14:24;2.63;;;2.38;;
22107;SDS011;11220;48.812;9.128;2023-08-21T02:16:49;2.80;;;2.58;;
22107;SDS011;11220;48.812;9.128;2023-08-21T02:19:15;3.22;;;2.90;;
22107;SDS011;11220;48.812;9.128;2023-08-21T02:21:41;2.53;;;2.33;;
22107;SDS011;11220;48.812;9.128;2023-08-21T02:24:06;2.92;;;2.53;;
22107;SDS011;11220;48.812;9.128;2023-08-21T02:26:32;3.50;;;2.88;;
22107;SDS011;11220;48.812;9.128;2023-08-21T02:28:57;3.03;;;2.72;;
22107;SDS011;11220;48.812;9.128;2023-08-21T02:31:23;2.83;;;2.38;;
22107;SDS011;11220;48.812;9.128;2023-08-21T02:33:48;2.55;;;2.30;;
22107;SDS011;11220;48.812;9.128;2023-08-21T02:36:15;2.80;;;2.35;;
22107;SDS011;11220;48.812;9.128;2023-08-21T02:38:41;2.78;;;2.45;;
22107;SDS011;11220;48.812;9.128;2023-08-21T02:41:06;4.03;;;2.78;;
22107;SDS011;11220;48.812;9.128;2023-08-21T02:43:32;2.70;;;2.22;;
22107;SDS011;11220;48.812;9.128;2023-08-21T02:45:58;3.58;;;3.10;;
22107;SDS011;11220;48.812;9.128;2023-08-21T02:48:24;3.08;;;2.75;;
22107;SDS011;11220;48.812;9.128;2023-08-21T02:50:49;2.75;;;2.45;;
22107;SDS011;11220;48.812;9.128;2023-08-21T02:53:15;3.00;;;2.70;;
22107;SDS011;11220;48.812;9.128;2023-08-21T02:55:41;3.08;;;2.78;;
22107;SDS011;11220;48.812;9.128;2023-08-21T02:58:06;3.42;;;2.45;;
22107;SDS011;11220;48.812;9.128;2023-08-21T03:00:32;3.78;;;3.05;;
22107;SDS011;11220;48.812;9.128;2023-08-21T03:02:57;4.28;;;2.75;;
22107;SDS011;11220;48.812;9.128;2023-08-21T03:05:23;3.83;;;3.05;;
22107;SDS011;11220;48.812;9.128;2023-08-21T03:07:48;3.10;;;2.70;;
22107;SDS011;11220;48.812;9.128;2023-08-21T03:10:14;3.22;;;2.85;;
22107;SDS011;11220;48.812;9.128;2023-08-21T03:12:39;3.83;;;3.15;;
22107;SDS011;11220;48.812;9.128;2023-08-21T03:15:05;3.08;;;2.55;;
22107;SDS011;11220;48.812;9.128;2023-08-21T03:17:32;3.00;;;2.70;;
22107;SDS011;11220;48.812;9.128;2023-08-21T03:19:57;3.45;;;3.15;;
22107;SDS011;11220;48.812;9.128;2023-08-21T03:22:23;3.58;;;2.65;;
22107;SDS011;11220;48.812;9.128;2023-08-21T03:24:48;3.40;;;3.05;;
22107;SDS011;11220;48.812;9.128;2023-08-21T03:27:18;3.25;;;2.90;;
22107;SDS011;11220;48.812;9.128;2023-08-21T03:29:43;3.85;;;2.67;;
22107;SDS011;11220;48.812;9.128;2023-08-21T03:32:13;4.32;;;3.13;;
22107;SDS011;11220;48.812;9.128;2023-08-21T03:34:40;3.17;;;2.75;;
22107;SDS011;11220;48.812;9.128;2023-08-21T03:37:06;4.43;;;2.95;;
22107;SDS011;11220;48.812;9.128;2023-08-21T03:39:31;3.45;;;2.83;;
22107;SDS011;11220;48.812;9.128;2023-08-21T03:41:58;3.15;;;2.78;;
22107;SDS011;11220;48.812;9.128;2023-08-21T03:44:23;4.70;;;3.20;;
22107;SDS011;11220;48.812;9.128;2023-08-21T03:46:49;3.70;;;2.58;;
22107;SDS011;11220;48.812;9.128;2023-08-21T03:49:14;4.05;;;3.00;;
22107;SDS011;11220;48.812;9.128;2023-08-21T03:51:40;3.90;;;3.03;;
22107;SDS011;11220;48.812;9.128;2023-08-21T03:54:05;3.80;;;2.95;;
22107;SDS011;11220;48.812;9.128;2023-08-21T03:56:31;3.65;;;3.30;;
22107;SDS011;11220;48.812;9.128;2023-08-21T04:04:18;4.30;;;3.00;;
22107;SDS011;11220;48.812;9.128;2023-08-21T04:10:29;4.47;;;3.00;;
22107;SDS011;11220;48.812;9.128;2023-08-21T04:13:30;4.30;;;2.97;;
22107;SDS011;11220;48.812;9.128;2023-08-21T04:16:10;3.17;;;2.88;;
22107;SDS011;11220;48.812;9.128;2023-08-21T04:19:13;4.03;;;3.03;;
22107;SDS011;11220;48.812;9.128;2023-08-21T04:22:25;4.53;;;3.25;;
22107;SDS011;11220;48.812;9.128;2023-08-21T04:25:16;3.67;;;3.20;;
22107;SDS011;11220;48.812;9.128;2023-08-21T04:38:03;3.78;;;3.25;;
22107;SDS011;11220;48.812;9.128;2023-08-21T04:41:01;3.80;;;3.40;;
22107;SDS011;11220;48.812;9.128;2023-08-21T04:57:26;3.20;;;2.70;;
22107;SDS011;11220;48.812;9.128;2023-08-21T04:59:51;3.10;;;2.80;;
22107;SDS011;11220;48.812;9.128;2023-08-21T05:02:17;3.03;;;2.60;;
22107;SDS011;11220;48.812;9.128;2023-08-21T05:08:00;2.95;;;2.22;;
22107;SDS011;11220;48.812;9.128;2023-08-21T05:10:26;2.47;;;2.22;;
22107;SDS011;11220;48.812;9.128;2023-08-21T05:12:51;3.28;;;2.67;;
22107;SDS011;11220;48.812;9.128;2023-08-21T05:15:16;2.00;;;1.80;;
22107;SDS011;11220;48.812;9.128;2023-08-21T05:17:42;2.22;;;1.80;;
22107;SDS011;11220;48.812;9.128;2023-08-21T05:20:08;2.45;;;1.85;;
22107;SDS011;11220;48.812;9.128;2023-08-21T05:22:34;2.58;;;2.38;;
22107;SDS011;11220;48.812;9.128;2023-08-21T05:25:00;2.10;;;1.90;;
22107;SDS011;11220;48.812;9.128;2023-08-21T05:27:26;2.45;;;1.80;;
22107;SDS011;11220;48.812;9.128;2023-08-21T05:29:51;2.40;;;1.80;;
22107;SDS011;11220;48.812;9.128;2023-08-21T05:32:17;1.52;;;1.42;;
22107;SDS011;11220;48.812;9.128;2023-08-21T05:34:42;2.40;;;1.95;;
22107;SDS011;11220;48.812;9.128;2023-08-21T05:37:08;1.70;;;1.60;;
22107;SDS011;11220;48.812;9.128;2023-08-21T05:39:33;1.90;;;1.70;;
22107;SDS011;11220;48.812;9.128;2023-08-21T05:41:59;2.08;;;1.80;;
22107;SDS011;11220;48.812;9.128;2023-08-21T05:44:25;1.35;;;1.25;;
22107;SDS011;11220;48.812;9.128;2023-08-21T05:46:50;1.73;;;1.58;;
22107;SDS011;11220;48.812;9.128;2023-08-21T05:49:16;1.90;;;1.40;;
22107;SDS011;11220;48.812;9.128;2023-08-21T05:51:41;1.70;;;1.60;;
22107;SDS011;11220;48.812;9.128;2023-08-21T05:54:07;1.95;;;1.52;;
22107;SDS011;11220;48.812;9.128;2023-08-21T05:56:32;1.75;;;1.65;;
22107;SDS011;11220;48.812;9.128;2023-08-21T05:58:58;2.38;;;1.73;;
22107;SDS011;11220;48.812;9.128;2023-08-21T06:01:23;1.65;;;1.40;;
22107;SDS011;11220;48.812;9.128;2023-08-21T06:03:49;2.13;;;1.83;;
22107;SDS011;11220;48.812;9.128;2023-08-21T06:06:14;1.67;;;1.38;;
22107;SDS011;11220;48.812;9.128;2023-08-21T06:08:40;2.20;;;1.67;;
22107;SDS011;11220;48.812;9.128;2023-08-21T06:11:06;2.00;;;1.35;;
22107;SDS011;11220;48.812;9.128;2023-08-21T06:13:31;1.95;;;1.80;;
22107;SDS011;11220;48.812;9.128;2023-08-21T06:15:57;1.85;;;1.40;;
22107;SDS011;11220;48.812;9.128;2023-08-21T06:18:22;1.52;;;1.23;;
22107;SDS011;11220;48.812;9.128;2023-08-21T06:20:48;1.38;;;1.27;;
22107;SDS011;11220;48.812;9.128;2023-08-21T06:23:18;1.52;;;1.10;;
22107;SDS011;11220;48.812;9.128;2023-08-21T06:25:50;1.23;;;1.13;;
22107;SDS011;11220;48.812;9.128;2023-08-21T06:28:16;1.40;;;1.30;;
22107;SDS011;11220;48.812;9.128;2023-08-21T06:30:42;2.00;;;1.30;;
22107;SDS011;11220;48.812;9.128;2023-08-21T06:33:08;1.38;;;1.27;;
22107;SDS011;11220;48.812;9.128;2023-08-21T06:35:36;1.40;;;1.27;;
22107;SDS011;11220;48.812;9.128;2023-08-21T06:38:02;1.55;;;1.25;;
22107;SDS011;11220;48.812;9.128;2023-08-21T06:40:28;1.35;;;1.25;;
22107;SDS011;11220;48.812;9.128;2023-08-21T06:42:53;1.42;;;1.33;;
22107;SDS011;11220;48.812;9.128;2023-08-21T06:45:21;1.27;;;1.17;;
22107;SDS011;11220;48.812;9.128;2023-08-21T06:47:47;1.30;;;1.10;;
22107;SDS011;11220;48.812;9.128;2023-08-21T06:50:18;0.90;;;0.80;;
22107;SDS011;11220;48.812;9.128;2023-08-21T06:52:43;1.15;;;0.88;;
22107;SDS011;11220;48.812;9.128;2023-08-21T06:55:09;1.10;;;1.00;;
22107;SDS011;11220;48.812;9.128;2023-08-21T06:57:34;0.77;;;0.70;;
22107;SDS011;11220;48.812;9.128;2023-08-21T07:00:01;1.27;;;1.02;;
22107;SDS011;11220;48.812;9.128;2023-08-21T07:02:28;1.00;;;0.80;;
22107;SDS011;11220;48.812;9.128;2023-08-21T07:04:53;1.00;;;0.73;;
22107;SDS011;11220;48.812;9.128;2023-08-21T07:07:19;1.13;;;0.98;;
22107;SDS011;11220;48.812;9.128;2023-08-21T07:09:44;1.10;;;1.00;;
22107;SDS011;11220;48.812;9.128;2023-08-21T07:12:10;0.98;;;0.80;;
22107;SDS011;11220;48.812;9.128;2023-08-21T07:14:35;0.80;;;0.80;;
22107;SDS011;11220;48.812;9.128;2023-08-21T07:17:01;1.13;;;0.90;;
22107;SDS011;11220;48.812;9.128;2023-08-21T07:19:26;1.00;;;0.90;;
22107;SDS011;11220;48.812;9.128;2023-08-21T07:21:52;0.73;;;0.73;;
22107;SDS011;11220;48.812;9.128;2023-08-21T07:24:17;0.80;;;0.75;;
22107;SDS011;11220;48.812;9.128;2023-08-21T07:26:43;0.82;;;0.75;;
22107;SDS011;11220;48.812;9.128;2023-08-21T07:29:08;0.85;;;0.65;;
22107;SDS011;11220;48.812;9.128;2023-08-21T07:31:34;0.70;;;0.65;;
22107;SDS011;11220;48.812;9.128;2023-08-21T07:33:59;0.90;;;0.80;;
22107;SDS011;11220;48.812;9.128;2023-08-21T07:36:25;0.70;;;0.70;;
22107;SDS011;11220;48.812;9.128;2023-08-21T07:38:51;0.80;;;0.80;;
22107;SDS011;11220;48.812;9.128;2023-08-21T07:41:16;0.90;;;0.73;;
22107;SDS011;11220;48.812;9.128;2023-08-21T07:43:42;1.20;;;1.10;;
22107;SDS011;11220;48.812;9.128;2023-08-21T07:46:09;1.13;;;1.00;;
22107;SDS011;11220;48.812;9.128;2023-08-21T07:48:45;1.00;;;0.90;;
22107;SDS011;11220;48.812;9.128;2023-08-21T07:51:11;1.02;;;0.93;;
22107;SDS011;11220;48.812;9.128;2023-08-21T07:53:37;1.00;;;0.90;;
22107;SDS011;11220;48.812;9.128;2023-08-21T07:56:03;0.70;;;0.70;;
22107;SDS011;11220;48.812;9.128;2023-08-21T07:58:30;0.90;;;0.70;;
22107;SDS011;11220;48.812;9.128;2023-08-21T08:00:56;1.10;;;0.88;;
22107;SDS011;11220;48.812;9.128;2023-08-21T08:03:22;0.80;;;0.80;;
22107;SDS011;11220;48.812;9.128;2023-08-21T08:05:48;0.82;;;0.80;;
22107;SDS011;11220;48.812;9.128;2023-08-21T08:08:13;1.25;;;0.90;;
22107;SDS011;11220;48.812;9.128;2023-08-21T08:10:39;0.80;;;0.70;;
22107;SDS011;11220;48.812;9.128;2023-08-21T08:13:06;0.85;;;0.68;;
22107;SDS011;11220;48.812;9.128;2023-08-21T08:15:32;0.63;;;0.63;;
22107;SDS011;11220;48.812;9.128;2023-08-21T08:18:01;0.75;;;0.75;;
22107;SDS011;11220;48.812;9.128;2023-08-21T08:20:28;0.73;;;0.60;;
22107;SDS011;11220;48.812;9.128;2023-08-21T08:22:53;0.75;;;0.75;;
22107;SDS011;11220;48.812;9.128;2023-08-21T08:25:19;1.02;;;0.65;;
22107;SDS011;11220;48.812;9.128;2023-08-21T08:27:45;0.82;;;0.70;;
22107;SDS011;11220;48.812;9.128;2023-08-21T08:30:10;0.93;;;0.82;;
22107;SDS011;11220;48.812;9.128;2023-08-21T08:32:36;0.82;;;0.77;;
22107;SDS011;11220;48.812;9.128;2023-08-21T08:35:02;0.88;;;0.70;;
22107;SDS011;11220;48.812;9.128;2023-08-21T08:37:27;0.90;;;0.90;;
22107;SDS011;11220;48.812;9.128;2023-08-21T08:39:53;0.80;;;0.80;;
22107;SDS011;11220;48.812;9.128;2023-08-21T08:42:18;0.90;;;0.80;;
22107;SDS011;11220;48.812;9.128;2023-08-21T08:44:44;0.93;;;0.60;;
22107;SDS011;11220;48.812;9.128;2023-08-21T08:47:11;0.70;;;0.63;;
22107;SDS011;11220;48.812;9.128;2023-08-21T08:49:39;0.70;;;0.68;;
22107;SDS011;11220;48.812;9.128;2023-08-21T08:52:05;0.95;;;0.85;;
22107;SDS011;11220;48.812;9.128;2023-08-21T08:54:31;1.17;;;0.90;;
22107;SDS011;11220;48.812;9.128;2023-08-21T08:56:58;1.02;;;0.90;;
22107;SDS011;11220;48.812;9.128;2023-08-21T08:59:23;1.13;;;0.90;;
22107;SDS011;11220;48.812;9.128;2023-08-21T09:01:49;1.00;;;0.80;;
22107;SDS011;11220;48.812;9.128;2023-08-21T09:04:15;0.80;;;0.68;;
22107;SDS011;11220;48.812;9.128;2023-08-21T09:06:41;1.00;;;0.75;;
22107;SDS011;11220;48.812;9.128;2023-08-21T09:09:07;1.00;;;0.90;;
22107;SDS011;11220;48.812;9.128;2023-08-21T09:11:35;0.80;;;0.80;;
22107;SDS011;11220;48.812;9.128;2023-08-21T09:14:01;0.60;;;0.60;;
22107;SDS011;11220;48.812;9.128;2023-08-21T09:16:26;0.90;;;0.80;;
22107;SDS011;11220;48.812;9.128;2023-08-21T09:18:53;0.80;;;0.80;;
22107;SDS011;11220;48.812;9.128;2023-08-21T09:21:24;1.15;;;0.70;;
22107;SDS011;11220;48.812;9.128;2023-08-21T09:23:55;1.27;;;0.68;;
22107;SDS011;11220;48.812;9.128;2023-08-21T09:26:23;0.70;;;0.60;;
22107;SDS011;11220;48.812;9.128;2023-08-21T09:28:50;0.60;;;0.60;;
22107;SDS011;11220;48.812;9.128;2023-08-21T09:31:21;0.70;;;0.60;;
22107;SDS011;11220;48.812;9.128;2023-08-21T09:33:54;0.98;;;0.80;;
22107;SDS011;11220;48.812;9.128;2023-08-21T09:36:21;1.00;;;0.90;;
22107;SDS011;11220;48.812;9.128;2023-08-21T09:38:47;1.00;;;0.90;;
22107;SDS011;11220;48.812;9.128;2023-08-21T09:41:13;1.13;;;0.80;;
22107;SDS011;11220;48.812;9.128;2023-08-21T09:43:42;0.88;;;0.75;;
22107;SDS011;11220;48.812;9.128;2023-08-21T09:46:10;0.80;;;0.80;;
22107;SDS011;11220;48.812;9.128;2023-08-21T09:48:40;1.00;;;0.90;;
22107;SDS011;11220;48.812;9.128;2023-08-21T09:51:06;1.33;;;1.00;;
22107;SDS011;11220;48.812;9.128;2023-08-21T09:53:32;0.77;;;0.70;;
22107;SDS011;11220;48.812;9.128;2023-08-21T09:55:58;0.90;;;0.70;;
22107;SDS011;11220;48.812;9.128;2023-08-21T09:58:28;1.00;;;0.80;;
22107;SDS011;11220;48.812;9.128;2023-08-21T10:00:56;0.60;;;0.60;;
22107;SDS011;11220;48.812;9.128;2023-08-21T10:03:22;1.10;;;0.80;;
22107;SDS011;11220;48.812;9.128;2023-08-21T10:05:49;0.80;;;0.80;;
22107;SDS011;11220;48.812;9.128;2023-08-21T10:08:16;1.10;;;0.90;;
22107;SDS011;11220;48.812;9.128;2023-08-21T10:10:47;0.70;;;0.70;;
22107;SDS011;11220;48.812;9.128;2023-08-21T10:13:13;0.95;;;0.85;;
22107;SDS011;11220;48.812;9.128;2023-08-21T10:15:39;1.27;;;0.88;;
22107;SDS011;11220;48.812;9.128;2023-08-21T10:18:24;0.90;;;0.90;;
22107;SDS011;11220;48.812;9.128;2023-08-21T10:20:54;0.88;;;0.80;;
22107;SDS011;11220;48.812;9.128;2023-08-21T10:23:24;0.70;;;0.70;;
22107;SDS011;11220;48.812;9.128;2023-08-21T10:25:54;0.90;;;0.80;;
22107;SDS011;11220;48.812;9.128;2023-08-21T10:28:21;0.70;;;0.70;;
22107;SDS011;11220;48.812;9.128;2023-08-21T10:30:47;0.70;;;0.60;;
22107;SDS011;11220;48.812;9.128;2023-08-21T10:33:13;1.13;;;0.80;;
22107;SDS011;11220;48.812;9.128;2023-08-21T10:35:38;1.25;;;0.80;;
22107;SDS011;11220;48.812;9.128;2023-08-21T10:38:14;0.77;;;0.55;;
22107;SDS011;11220;48.812;9.128;2023-08-21T10:41:03;1.10;;;0.93;;
22107;SDS011;11220;48.812;9.128;2023-08-21T10:43:36;1.00;;;0.73;;
22107;SDS011;11220;48.812;9.128;2023-08-21T10:46:02;1.02;;;0.88;;
22107;SDS011;11220;48.812;9.128;2023-08-21T10:48:28;0.98;;;0.88;;
22107;SDS011;11220;48.812;9.128;2023-08-21T10:50:53;0.80;;;0.80;;
22107;SDS011;11220;48.812;9.128;2023-08-21T10:53:19;0.75;;;0.63;;
22107;SDS011;11220;48.812;9.128;2023-08-21T10:55:52;0.70;;;0.70;;
22107;SDS011;11220;48.812;9.128;2023-08-21T10:58:19;0.70;;;0.70;;
22107;SDS011;11220;48.812;9.128;2023-08-21T11:00:44;0.73;;;0.73;;
22107;SDS011;11220;48.812;9.128;2023-08-21T11:03:10;0.50;;;0.50;;
22107;SDS011;11220;48.812;9.128;2023-08-21T11:05:35;0.60;;;0.60;;
22107;SDS011;11220;48.812;9.128;2023-08-21T11:08:01;0.70;;;0.70;;
22107;SDS011;11220;48.812;9.128;2023-08-21T11:10:28;1.00;;;0.60;;
22107;SDS011;11220;48.812;9.128;2023-08-21T11:12:57;0.50;;;0.50;;
22107;SDS011;11220;48.812;9.128;2023-08-21T11:15:27;1.00;;;0.90;;
22107;SDS011;11220;48.812;9.128;2023-08-21T11:17:55;0.90;;;0.68;;
22107;SDS011;11220;48.812;9.128;2023-08-21T11:20:35;0.80;;;0.77;;
22107;SDS011;11220;48.812;9.128;2023-08-21T11:23:01;0.75;;;0.70;;
22107;SDS011;11220;48.812;9.128;2023-08-21T11:25:31;0.90;;;0.70;;
22107;SDS011;11220;48.812;9.128;2023-08-21T11:27:58;0.85;;;0.80;;
22107;SDS011;11220;48.812;9.128;2023-08-21T11:30:23;0.68;;;0.60;;
22107;SDS011;11220;48.812;9.128;2023-08-21T11:33:04;0.73;;;0.63;;
22107;SDS011;11220;48.812;9.128;2023-08-21T11:35:30;0.68;;;0.63;;
22107;SDS011;11220;48.812;9.128;2023-08-21T11:37:56;0.80;;;0.80;;
22107;SDS011;11220;48.812;9.128;2023-08-21T11:40:22;0.60;;;0.60;;
22107;SDS011;11220;48.812;9.128;2023-08-21T11:42:47;0.70;;;0.60;;
22107;SDS011;11220;48.812;9.128;2023-08-21T11:45:17;0.65;;;0.65;;
22107;SDS011;11220;48.812;9.128;2023-08-21T11:47:46;0.68;;;0.65;;
22107;SDS011;11220;48.812;9.128;2023-08-21T11:50:11;0.70;;;0.65;;
22107;SDS011;11220;48.812;9.128;2023-08-21T11:52:40;0.60;;;0.60;;
22107;SDS011;11220;48.812;9.128;2023-08-21T11:55:08;0.60;;;0.50;;
22107;SDS011;11220;48.812;9.128;2023-08-21T11:57:35;0.55;;;0.55;;
22107;SDS011;11220;48.812;9.128;2023-08-21T12:00:11;0.65;;;0.60;;
22107;SDS011;11220;48.812;9.128;2023-08-21T12:02:37;0.60;;;0.60;;
22107;SDS011;11220;48.812;9.128;2023-08-21T12:05:03;0.73;;;0.73;;
22107;SDS011;11220;48.812;9.128;2023-08-21T12:07:30;0.82;;;0.70;;
22107;SDS011;11220;48.812;9.128;2023-08-21T12:09:59;0.63;;;0.63;;
22107;SDS011;11220;48.812;9.128;2023-08-21T12:12:25;0.70;;;0.43;;
22107;SDS011;11220;48.812;9.128;2023-08-21T12:14:51;0.55;;;0.55;;
22107;SDS011;11220;48.812;9.128;2023-08-21T12:17:17;0.50;;;0.50;;
22107;SDS011;11220;48.812;9.128;2023-08-21T12:19:42;0.52;;;0.52;;
22107;SDS011;11220;48.812;9.128;2023-08-21T12:22:08;0.47;;;0.45;;
22107;SDS011;11220;48.812;9.128;2023-08-21T12:24:34;0.57;;;0.57;;
22107;SDS011;11220;48.812;9.128;2023-08-21T12:26:59;0.55;;;0.50;;
22107;SDS011;11220;48.812;9.128;2023-08-21T12:29:25;0.70;;;0.70;;
22107;SDS011;11220;48.812;9.128;2023-08-21T12:31:50;0.50;;;0.50;;
22107;SDS011;11220;48.812;9.128;2023-08-21T12:34:16;0.50;;;0.50;;
22107;SDS011;11220;48.812;9.128;2023-08-21T12:36:42;0.60;;;0.60;;
22107;SDS011;11220;48.812;9.128;2023-08-21T12:39:07;0.60;;;0.60;;
22107;SDS011;11220;48.812;9.128;2023-08-21T12:41:33;0.65;;;0.65;;
22107;SDS011;11220;48.812;9.128;2023-08-21T12:43:59;0.75;;;0.75;;
22107;SDS011;11220;48.812;9.128;2023-08-21T12:46:27;0.60;;;0.50;;
22107;SDS011;11220;48.812;9.128;2023-08-21T12:48:54;0.50;;;0.50;;
22107;SDS011;11220;48.812;9.128;2023-08-21T12:51:20;0.63;;;0.60;;
22107;SDS011;11220;48.812;9.128;2023-08-21T12:53:46;0.60;;;0.60;;
22107;SDS011;11220;48.812;9.128;2023-08-21T12:56:11;0.60;;;0.60;;
22107;SDS011;11220;48.812;9.128;2023-08-21T12:58:37;0.70;;;0.70;;
22107;SDS011;11220;48.812;9.128;2023-08-21T13:01:02;0.70;;;0.68;;
22107;SDS011;11220;48.812;9.128;2023-08-21T13:03:32;0.50;;;0.50;;
22107;SDS011;11220;48.812;9.128;2023-08-21T13:05:58;0.65;;;0.63;;
22107;SDS011;11220;48.812;9.128;2023-08-21T13:08:24;0.50;;;0.50;;
22107;SDS011;11220;48.812;9.128;2023-08-21T13:10:52;0.63;;;0.60;;
22107;SDS011;11220;48.812;9.128;2023-08-21T13:13:17;0.70;;;0.70;;
22107;SDS011;11220;48.812;9.128;2023-08-21T13:15:43;0.60;;;0.60;;
22107;SDS011;11220;48.812;9.128;2023-08-21T13:18:09;0.60;;;0.60;;
22107;SDS011;11220;48.812;9.128;2023-08-21T13:20:35;0.60;;;0.60;;
22107;SDS011;11220;48.812;9.128;2023-08-21T13:23:01;0.40;;;0.40;;
22107;SDS011;11220;48.812;9.128;2023-08-21T13:25:27;0.55;;;0.55;;
22107;SDS011;11220;48.812;9.128;2023-08-21T13:27:54;0.60;;;0.60;;
22107;SDS011;11220;48.812;9.128;2023-08-21T13:30:19;0.90;;;0.55;;
22107;SDS011;11220;48.812;9.128;2023-08-21T13:32:45;0.50;;;0.50;;
22107;SDS011;11220;48.812;9.128;2023-08-21T13:35:11;0.55;;;0.50;;
22107;SDS011;11220;48.812;9.128;2023-08-21T13:37:37;0.50;;;0.50;;
22107;SDS011;11220;48.812;9.128;2023-08-21T13:40:03;0.60;;;0.60;;
22107;SDS011;11220;48.812;9.128;2023-08-21T13:42:39;0.63;;;0.57;;
22107;SDS011;11220;48.812;9.128;2023-08-21T13:45:09;0.55;;;0.55;;
22107;SDS011;11220;48.812;9.128;2023-08-21T13:47:40;0.52;;;0.50;;
22107;SDS011;11220;48.812;9.128;2023-08-21T13:50:08;0.73;;;0.57;;
22107;SDS011;11220;48.812;9.128;2023-08-21T13:52:35;0.60;;;0.60;;
22107;SDS011;11220;48.812;9.128;2023-08-21T13:55:01;0.60;;;0.60;;
22107;SDS011;11220;48.812;9.128;2023-08-21T13:57:29;0.50;;;0.50;;
22107;SDS011;11220;48.812;9.128;2023-08-21T13:59:54;0.70;;;0.60;;
22107;SDS011;11220;48.812;9.128;2023-08-21T14:02:20;0.50;;;0.50;;
22107;SDS011;11220;48.812;9.128;2023-08-21T14:04:47;0.70;;;0.63;;
22107;SDS011;11220;48.812;9.128;2023-08-21T14:07:13;0.52;;;0.52;;
22107;SDS011;11220;48.812;9.128;2023-08-21T14:09:40;0.47;;;0.40;;
22107;SDS011;11220;48.812;9.128;2023-08-21T14:12:05;0.50;;;0.50;;
22107;SDS011;11220;48.812;9.128;2023-08-21T14:14:32;0.68;;;0.52;;
22107;SDS011;11220;48.812;9.128;2023-08-21T14:16:58;0.63;;;0.60;;
22107;SDS011;11220;48.812;9.128;2023-08-21T14:19:24;0.57;;;0.57;;
22107;SDS011;11220;48.812;9.128;2023-08-21T14:21:49;0.57;;;0.50;;
22107;SDS011;11220;48.812;9.128;2023-08-21T14:24:15;0.43;;;0.43;;
22107;SDS011;11220;48.812;9.128;2023-08-21T14:26:41;0.70;;;0.57;;
22107;SDS011;11220;48.812;9.128;2023-08-21T14:29:07;0.70;;;0.70;;
22107;SDS011;11220;48.812;9.128;2023-08-21T14:31:32;0.60;;;0.60;;
22107;SDS011;11220;48.812;9.128;2023-08-21T14:33:58;0.68;;;0.63;;
22107;SDS011;11220;48.812;9.128;2023-08-21T14:36:24;0.50;;;0.45;;
22107;SDS011;11220;48.812;9.128;2023-08-21T14:38:49;0.43;;;0.43;;
22107;SDS011;11220;48.812;9.128;2023-08-21T14:41:15;0.60;;;0.60;;
22107;SDS011;11220;48.812;9.128;2023-08-21T14:43:41;0.60;;;0.50;;
22107;SDS011;11220;48.812;9.128;2023-08-21T14:46:07;0.60;;;0.60;;
22107;SDS011;11220;48.812;9.128;2023-08-21T14:48:33;0.63;;;0.50;;
22107;SDS011;11220;48.812;9.128;2023-08-21T14:50:58;0.60;;;0.60;;
22107;SDS011;11220;48.812;9.128;2023-08-21T14:53:24;0.60;;;0.60;;
22107;SDS011;11220;48.812;9.128;2023-08-21T14:55:49;0.60;;;0.50;;
22107;SDS011;11220;48.812;9.128;2023-08-21T14:58:15;0.70;;;0.50;;
22107;SDS011;11220;48.812;9.128;2023-08-21T15:00:41;0.60;;;0.55;;
22107;SDS011;11220;48.812;9.128;2023-08-21T15:03:07;0.50;;;0.50;;
22107;SDS011;11220;48.812;9.128;2023-08-21T15:05:32;0.52;;;0.43;;
22107;SDS011;11220;48.812;9.128;2023-08-21T15:07:58;0.70;;;0.70;;
22107;SDS011;11220;48.812;9.128;2023-08-21T15:10:26;0.50;;;0.50;;
22107;SDS011;11220;48.812;9.128;2023-08-21T15:12:52;0.57;;;0.57;;
22107;SDS011;11220;48.812;9.128;2023-08-21T15:15:18;0.60;;;0.60;;
22107;SDS011;11220;48.812;9.128;2023-08-21T15:17:45;0.63;;;0.60;;
22107;SDS011;11220;48.812;9.128;2023-08-21T15:20:11;0.60;;;0.50;;
22107;SDS011;11220;48.812;9.128;2023-08-21T15:22:39;0.70;;;0.70;;
22107;SDS011;11220;48.812;9.128;2023-08-21T15:25:05;0.60;;;0.50;;
22107;SDS011;11220;48.812;9.128;2023-08-21T15:27:31;0.60;;;0.60;;
22107;SDS011;11220;48.812;9.128;2023-08-21T15:29:56;0.40;;;0.40;;